createdAt,value
2022-08-25T00:00:22.817Z,37.15
2022-08-25T00:02:56.086Z,37.41
2022-08-25T00:05:29.111Z,37.33
2022-08-25T00:07:58.299Z,37.36
2022-08-25T00:10:26.967Z,37.45
2022-08-25T00:12:55.577Z,37.49
2022-08-25T00:15:25.359Z,37.66
2022-08-25T00:17:54.892Z,37.52
2022-08-25T00:20:25.818Z,37.68
2022-08-25T00:22:56.369Z,37.67
2022-08-25T00:25:26.099Z,37.80
2022-08-25T00:27:54.958Z,37.96
2022-08-25T00:30:23.375Z,37.92
2022-08-25T00:32:55.263Z,38.15
2022-08-25T00:35:27.282Z,38.19
2022-08-25T00:37:56.708Z,37.92
2022-08-25T00:40:27.330Z,38.16
2022-08-25T00:42:56.127Z,38.40
2022-08-25T00:45:26.099Z,38.21
2022-08-25T00:47:54.578Z,38.39
2022-08-25T00:50:28.445Z,38.60
2022-08-25T00:53:00.244Z,38.51
2022-08-25T00:55:39.477Z,38.48
2022-08-25T00:58:22.186Z,38.65
2022-08-25T01:00:56.141Z,38.72
2022-08-25T01:03:36.080Z,38.79
2022-08-25T01:06:07.641Z,38.64
2022-08-25T01:08:35.908Z,38.88
2022-08-25T01:11:10.780Z,38.70
2022-08-25T01:13:47.468Z,38.64
2022-08-25T01:16:17.874Z,38.93
2022-08-25T01:18:54.051Z,38.86
2022-08-25T01:21:25.450Z,39.10
2022-08-25T01:23:55.745Z,38.69
2022-08-25T01:26:35.405Z,38.80
2022-08-25T01:29:21.501Z,39.17
2022-08-25T01:31:56.884Z,39.01
2022-08-25T01:34:32.269Z,39.17
2022-08-25T01:37:02.448Z,39.36
2022-08-25T01:39:37.044Z,39.34
2022-08-25T01:42:11.352Z,39.42
2022-08-25T01:44:45.156Z,39.32
2022-08-25T01:47:16.260Z,39.20
2022-08-25T01:49:46.099Z,39.43
2022-08-25T01:52:33.700Z,39.46
2022-08-25T01:55:01.915Z,39.75
2022-08-25T01:57:32.421Z,39.62
2022-08-25T02:00:01.776Z,39.69
2022-08-25T02:02:42.606Z,39.88
2022-08-25T02:05:20.332Z,39.80
2022-08-25T02:07:52.115Z,39.83
2022-08-25T02:10:20.357Z,39.79
2022-08-25T02:12:48.677Z,39.96
2022-08-25T02:15:17.911Z,39.92
2022-08-25T02:17:46.433Z,40.08
2022-08-25T02:20:15.621Z,40.09
2022-08-25T02:22:45.057Z,40.27
2022-08-25T02:25:25.238Z,40.07
2022-08-25T02:27:53.363Z,40.31
2022-08-25T02:30:21.671Z,40.18
2022-08-25T02:32:49.791Z,40.22
2022-08-25T02:35:19.410Z,40.51
2022-08-25T02:37:50.248Z,40.40
2022-08-25T02:40:21.474Z,40.42
2022-08-25T02:42:51.753Z,40.66
2022-08-25T02:45:19.794Z,40.77
2022-08-25T02:47:50.341Z,40.72
2022-08-25T02:50:18.594Z,40.84
2022-08-25T02:52:50.809Z,40.92
2022-08-25T02:55:19.730Z,40.76
2022-08-25T02:57:48.564Z,40.86
2022-08-25T03:00:17.712Z,41.14
2022-08-25T03:02:48.074Z,41.33
2022-08-25T03:05:17.545Z,41.16
2022-08-25T03:07:45.639Z,41.54
2022-08-25T03:10:19.165Z,41.22
2022-08-25T03:12:48.315Z,41.64
2022-08-25T03:15:18.171Z,41.55
2022-08-25T03:17:50.631Z,41.58
2022-08-25T03:20:20.672Z,41.96
2022-08-25T03:22:50.722Z,42.18
2022-08-25T03:25:38.285Z,42.16
2022-08-25T03:28:08.798Z,42.35
2022-08-25T03:30:37.347Z,42.67
2022-08-25T03:33:05.726Z,42.49
2022-08-25T03:35:34.494Z,42.88
2022-08-25T03:38:03.016Z,42.81
2022-08-25T03:40:34.196Z,43.08
2022-08-25T03:43:04.175Z,43.25
2022-08-25T03:45:32.377Z,42.96
2022-08-25T03:48:00.251Z,43.29
2022-08-25T03:50:28.443Z,43.30
2022-08-25T03:52:57.941Z,43.16
2022-08-25T03:55:28.346Z,43.08
2022-08-25T03:57:58.403Z,43.28
2022-08-25T04:00:27.575Z,43.38
2022-08-25T04:02:55.827Z,43.46
2022-08-25T04:05:26.782Z,43.68
2022-08-25T04:07:56.153Z,43.53
2022-08-25T04:10:24.944Z,43.37
2022-08-25T04:12:53.043Z,43.57
2022-08-25T04:15:21.137Z,43.49
2022-08-25T04:17:51.135Z,43.59
2022-08-25T04:20:21.066Z,43.77
2022-08-25T04:22:49.838Z,43.76
2022-08-25T04:25:18.576Z,43.73
2022-08-25T04:27:47.751Z,44.00
2022-08-25T04:30:16.382Z,43.88
2022-08-25T04:32:46.085Z,44.30
2022-08-25T04:35:15.094Z,44.34
2022-08-25T04:37:43.614Z,44.10
2022-08-25T04:40:12.099Z,44.17
2022-08-25T04:42:40.344Z,44.52
2022-08-25T04:45:09.051Z,44.38
2022-08-25T04:47:39.767Z,44.20
2022-08-25T04:50:10.268Z,44.28
2022-08-25T04:52:38.549Z,44.53
2022-08-25T04:55:09.929Z,44.55
2022-08-25T04:57:38.093Z,44.11
2022-08-25T05:00:07.701Z,44.40
2022-08-25T05:02:36.580Z,44.35
2022-08-25T05:05:06.896Z,44.60
2022-08-25T05:07:35.916Z,44.13
2022-08-25T05:10:04.869Z,44.23
2022-08-25T05:12:33.666Z,44.69
2022-08-25T05:15:26.624Z,44.60
2022-08-25T05:17:56.106Z,44.57
2022-08-25T05:20:26.984Z,44.12
2022-08-25T05:22:55.439Z,44.44
2022-08-25T05:25:23.553Z,44.67
2022-08-25T05:27:52.601Z,44.56
2022-08-25T05:30:21.512Z,44.65
2022-08-25T05:32:50.604Z,44.48
2022-08-25T05:35:21.341Z,44.62
2022-08-25T05:37:51.366Z,44.79
2022-08-25T05:40:19.577Z,44.69
2022-08-25T05:42:48.903Z,44.46
2022-08-25T05:45:20.381Z,44.41
2022-08-25T05:47:49.411Z,44.72
2022-08-25T05:50:18.727Z,44.56
2022-08-25T05:52:47.277Z,44.89
2022-08-25T05:55:17.149Z,44.83
2022-08-25T05:57:45.542Z,44.70
2022-08-25T06:00:14.447Z,45.01
2022-08-25T06:02:46.641Z,45.17
2022-08-25T06:05:22.452Z,44.79
2022-08-25T06:07:52.979Z,45.10
2022-08-25T06:10:22.691Z,44.80
2022-08-25T06:12:51.938Z,45.04
2022-08-25T06:15:24.567Z,44.97
2022-08-25T06:18:00.874Z,45.02
2022-08-25T06:20:32.185Z,44.78
2022-08-25T06:23:20.627Z,44.99
2022-08-25T06:26:20.868Z,44.71
2022-08-25T06:28:51.456Z,44.92
2022-08-25T06:31:22.726Z,45.03
2022-08-25T06:33:52.557Z,45.11
2022-08-25T06:36:21.926Z,45.02
2022-08-25T06:38:50.535Z,44.86
2022-08-25T06:41:18.845Z,44.65
2022-08-25T06:43:51.815Z,44.77
2022-08-25T06:46:28.852Z,44.68
2022-08-25T06:49:08.153Z,44.52
2022-08-25T06:51:36.493Z,44.50
2022-08-25T06:54:06.829Z,44.52
2022-08-25T06:56:36.481Z,44.29
2022-08-25T06:59:08.154Z,44.17
2022-08-25T07:01:39.161Z,44.12
2022-08-25T07:04:12.896Z,43.89
2022-08-25T07:06:42.054Z,43.97
2022-08-25T07:09:13.041Z,43.76
2022-08-25T07:11:42.617Z,43.71
2022-08-25T07:14:13.623Z,43.50
2022-08-25T07:16:48.588Z,43.53
2022-08-25T07:19:21.264Z,43.58
2022-08-25T07:21:53.191Z,43.18
2022-08-25T07:24:22.828Z,43.05
2022-08-25T07:26:51.788Z,43.14
2022-08-25T07:29:32.973Z,43.13
2022-08-25T07:32:02.746Z,42.83
2022-08-25T07:34:52.269Z,42.79
2022-08-25T07:37:47.659Z,42.62
2022-08-25T07:40:24.183Z,42.73
2022-08-25T07:42:55.563Z,42.92
2022-08-25T07:45:30.582Z,42.66
2022-08-25T07:48:09.266Z,42.34
2022-08-25T07:50:42.691Z,42.35
2022-08-25T07:53:15.035Z,42.12
2022-08-25T07:55:45.058Z,41.89
2022-08-25T07:58:16.928Z,41.65
2022-08-25T08:00:50.723Z,41.71
2022-08-25T08:03:42.088Z,41.64
2022-08-25T08:06:17.064Z,41.42
2022-08-25T08:08:49.357Z,41.40
2022-08-25T08:11:41.471Z,41.19
2022-08-25T08:14:13.746Z,41.44
2022-08-25T08:16:45.696Z,41.37
2022-08-25T08:19:13.646Z,41.06
2022-08-25T08:21:44.572Z,40.89
2022-08-25T08:24:31.231Z,40.33
2022-08-25T08:27:03.840Z,40.25
2022-08-25T08:29:32.575Z,40.51
2022-08-25T08:32:00.696Z,40.21
2022-08-25T08:34:29.422Z,39.99
2022-08-25T08:36:58.839Z,39.70
2022-08-25T08:39:29.054Z,39.80
2022-08-25T08:42:18.209Z,39.34
2022-08-25T08:44:46.121Z,39.64
2022-08-25T08:47:19.905Z,39.56
2022-08-25T08:50:28.067Z,39.04
2022-08-25T08:53:12.135Z,39.01
2022-08-25T08:55:52.459Z,38.87
2022-08-25T08:59:06.300Z,38.86
2022-08-25T09:01:45.753Z,38.54
2022-08-25T09:04:51.865Z,38.51
2022-08-25T09:07:32.722Z,38.36
2022-08-25T09:10:02.696Z,38.45
2022-08-25T09:13:15.314Z,37.91
2022-08-25T09:16:34.125Z,37.85
2022-08-25T09:19:36.146Z,37.71
2022-08-25T09:22:35.089Z,37.68
2022-08-25T09:28:55.675Z,37.45
2022-08-25T09:32:06.923Z,37.05
2022-08-25T09:34:37.015Z,37.22
2022-08-25T09:37:04.936Z,36.95
2022-08-25T09:39:32.906Z,36.80
2022-08-25T09:42:01.072Z,36.58
2022-08-25T09:44:45.791Z,36.44
2022-08-25T09:47:28.019Z,36.45
2022-08-25T09:50:00.841Z,37.09
2022-08-25T09:52:29.808Z,36.25
2022-08-25T09:55:08.238Z,36.02
2022-08-25T09:57:45.491Z,35.87
2022-08-25T10:00:29.673Z,35.62
2022-08-25T10:03:24.769Z,35.45
2022-08-25T10:05:58.895Z,35.56
2022-08-25T10:08:46.086Z,35.41
2022-08-25T10:11:49.835Z,35.21
2022-08-25T10:14:32.858Z,34.93
2022-08-25T10:17:30.075Z,34.83
2022-08-25T10:20:10.553Z,34.40
2022-08-25T10:22:41.323Z,34.31
2022-08-25T10:25:14.420Z,33.90
2022-08-25T10:28:04.436Z,33.72
2022-08-25T10:30:45.502Z,34.65
2022-08-25T10:33:45.798Z,34.11
2022-08-25T10:36:40.045Z,33.79
2022-08-25T10:39:40.720Z,33.42
2022-08-25T10:42:42.717Z,33.34
2022-08-25T10:45:45.058Z,33.08
2022-08-25T10:48:39.185Z,32.85
2022-08-25T10:51:38.132Z,32.94
2022-08-25T10:54:18.985Z,32.75
2022-08-25T10:57:25.729Z,32.42
2022-08-25T11:00:31.450Z,32.50
2022-08-25T11:03:44.960Z,32.37
2022-08-25T11:06:26.708Z,32.40
2022-08-25T11:09:01.253Z,32.14
2022-08-25T11:11:43.423Z,31.78
2022-08-25T11:15:00.081Z,31.69
2022-08-25T11:17:41.963Z,31.74
2022-08-25T11:20:26.901Z,31.64
2022-08-25T11:23:20.394Z,31.57
2022-08-25T11:25:56.349Z,31.59
2022-08-25T11:29:13.357Z,31.41
2022-08-25T11:31:53.653Z,31.52
2022-08-25T11:34:23.528Z,31.64
2022-08-25T11:36:55.393Z,31.55
2022-08-25T11:40:12.194Z,31.58
2022-08-25T11:43:12.994Z,31.31
2022-08-25T11:45:47.353Z,31.33
2022-08-25T11:48:45.312Z,31.63
2022-08-25T11:51:47.762Z,31.52
2022-08-25T11:54:26.471Z,31.37
2022-08-25T11:57:10.645Z,31.34
2022-08-25T11:59:53.543Z,30.81
2022-08-25T12:02:42.899Z,30.78
2022-08-25T12:05:22.431Z,30.93
2022-08-25T12:08:13.564Z,30.88
2022-08-25T12:11:11.439Z,30.89
2022-08-25T12:13:47.785Z,30.83
2022-08-25T12:16:35.725Z,30.74
2022-08-25T12:19:23.039Z,30.74
2022-08-25T12:21:53.110Z,30.84
2022-08-25T12:24:47.523Z,30.65
2022-08-25T12:27:51.900Z,30.54
2022-08-25T12:30:30.839Z,30.40
2022-08-25T12:33:28.352Z,30.49
2022-08-25T12:36:05.435Z,30.33
2022-08-25T12:38:52.965Z,30.11
2022-08-25T12:41:31.057Z,30.09
2022-08-25T12:44:47.920Z,29.72
2022-08-25T12:47:25.114Z,29.64
2022-08-25T12:50:41.177Z,29.89
2022-08-25T12:53:42.931Z,29.92
2022-08-25T12:56:42.377Z,29.72
2022-08-25T12:59:21.857Z,29.67
2022-08-25T13:02:20.962Z,29.72
2022-08-25T13:05:22.636Z,29.47
2022-08-25T13:08:23.303Z,29.44
2022-08-25T13:11:36.853Z,29.32
2022-08-25T13:14:43.887Z,28.94
2022-08-25T13:17:48.475Z,29.30
2022-08-25T13:20:30.873Z,28.86
2022-08-25T13:23:01.256Z,28.77
2022-08-25T13:25:34.944Z,28.67
2022-08-25T13:28:10.818Z,28.74
2022-08-25T13:30:41.623Z,28.26
2022-08-25T13:33:23.104Z,28.18
2022-08-25T13:36:15.340Z,28.30
2022-08-25T13:38:46.884Z,28.32
2022-08-25T13:41:28.654Z,28.07
2022-08-25T13:44:01.852Z,28.14
2022-08-25T13:46:31.750Z,28.01
2022-08-25T13:49:09.925Z,27.84
2022-08-25T13:51:53.149Z,27.73
2022-08-25T13:54:41.112Z,27.97
2022-08-25T13:57:24.199Z,27.87
2022-08-25T14:00:01.597Z,27.86
2022-08-25T14:02:53.476Z,27.20
2022-08-25T14:05:43.140Z,27.34
2022-08-25T14:08:35.733Z,27.16
2022-08-25T14:11:15.693Z,27.33
2022-08-25T14:13:45.639Z,27.56
2022-08-25T14:16:21.388Z,27.06
2022-08-25T14:18:59.427Z,26.84
2022-08-25T14:21:32.442Z,26.73
2022-08-25T14:24:06.783Z,26.73
2022-08-25T14:26:53.919Z,26.74
2022-08-25T14:29:23.962Z,27.03
2022-08-25T14:31:53.869Z,26.76
2022-08-25T14:34:34.667Z,26.98
2022-08-25T14:37:12.518Z,26.69
2022-08-25T14:39:44.782Z,27.13
2022-08-25T14:42:13.833Z,26.59
2022-08-25T14:44:42.290Z,26.76
2022-08-25T14:47:10.541Z,26.38
2022-08-25T14:49:42.686Z,26.29
2022-08-25T14:52:27.446Z,26.40
2022-08-25T14:54:57.788Z,26.43
2022-08-25T14:57:26.882Z,26.38
2022-08-25T14:59:55.324Z,26.18
2022-08-25T15:02:30.653Z,26.11
2022-08-25T15:05:06.447Z,26.42
2022-08-25T15:07:54.954Z,26.27
2022-08-25T15:10:23.807Z,26.09
2022-08-25T15:12:54.848Z,26.03
2022-08-25T15:15:26.440Z,26.34
2022-08-25T15:17:58.110Z,26.21
2022-08-25T15:20:29.160Z,26.15
2022-08-25T15:22:57.477Z,25.97
2022-08-25T15:25:26.083Z,26.00
2022-08-25T15:27:56.480Z,25.95
2022-08-25T15:30:31.017Z,26.05
2022-08-25T15:33:00.942Z,26.12
2022-08-25T15:35:29.407Z,26.11
2022-08-25T15:37:57.537Z,26.04
2022-08-25T15:40:26.779Z,25.79
2022-08-25T15:42:55.253Z,25.73
2022-08-25T15:45:24.227Z,25.88
2022-08-25T15:47:54.030Z,25.83
2022-08-25T15:50:26.031Z,25.90
2022-08-25T15:52:55.144Z,25.73
2022-08-25T15:55:23.138Z,25.87
2022-08-25T15:57:51.368Z,25.60
2022-08-25T16:00:21.536Z,25.67
2022-08-25T16:02:49.800Z,25.82
2022-08-25T16:05:22.488Z,25.60
2022-08-25T16:07:54.005Z,25.83
2022-08-25T16:10:22.386Z,25.76
2022-08-25T16:12:50.402Z,25.75
2022-08-25T16:15:19.174Z,25.63
2022-08-25T16:18:00.485Z,25.55
2022-08-25T16:20:31.974Z,25.29
2022-08-25T16:23:03.884Z,25.64
2022-08-25T16:25:33.311Z,25.99
2022-08-25T16:28:04.435Z,25.87
2022-08-25T16:30:32.600Z,25.47
2022-08-25T16:33:01.038Z,25.76
2022-08-25T16:35:29.734Z,25.79
2022-08-25T16:37:57.657Z,25.38
2022-08-25T16:40:26.568Z,25.56
2022-08-25T16:42:55.394Z,25.62
2022-08-25T16:45:25.001Z,25.32
2022-08-25T16:47:54.255Z,25.69
2022-08-25T16:50:23.895Z,25.73
2022-08-25T16:53:10.704Z,25.58
2022-08-25T16:55:40.288Z,25.74
2022-08-25T16:58:12.543Z,25.35
2022-08-25T17:00:44.564Z,25.37
2022-08-25T17:03:13.109Z,25.51
2022-08-25T17:05:43.724Z,25.88
2022-08-25T17:08:31.051Z,25.59
2022-08-25T17:11:12.926Z,25.80
2022-08-25T17:13:46.195Z,25.63
2022-08-25T17:16:15.630Z,25.57
2022-08-25T17:18:47.581Z,25.76
2022-08-25T17:21:24.549Z,25.89
2022-08-25T17:23:56.659Z,25.73
2022-08-25T17:26:27.578Z,25.42
2022-08-25T17:29:02.001Z,25.69
2022-08-25T17:31:30.899Z,25.90
2022-08-25T17:33:59.694Z,25.76
2022-08-25T17:36:29.347Z,25.90
2022-08-25T17:38:57.642Z,26.13
2022-08-25T17:41:27.009Z,26.24
2022-08-25T17:43:56.384Z,26.28
2022-08-25T17:46:24.692Z,26.29
2022-08-25T17:48:54.156Z,26.45
2022-08-25T17:51:23.757Z,26.25
2022-08-25T17:53:52.873Z,26.52
2022-08-25T17:56:24.287Z,26.29
2022-08-25T17:58:56.996Z,26.52
2022-08-25T18:01:40.556Z,26.43
2022-08-25T18:04:17.292Z,26.51
2022-08-25T18:06:48.506Z,26.64
2022-08-25T18:09:18.061Z,26.61
2022-08-25T18:11:46.754Z,26.85
2022-08-25T18:14:16.698Z,27.35
2022-08-25T18:16:45.656Z,27.17
2022-08-25T18:19:15.590Z,27.44
2022-08-25T18:21:43.767Z,27.47
2022-08-25T18:24:13.393Z,27.50
2022-08-25T18:26:46.250Z,27.66
2022-08-25T18:29:14.307Z,27.87
2022-08-25T18:31:47.376Z,28.46
2022-08-25T18:34:16.470Z,28.75
2022-08-25T18:36:47.040Z,29.60
2022-08-25T18:39:34.899Z,29.91
2022-08-25T18:42:07.180Z,30.11
2022-08-25T18:44:36.537Z,30.13
2022-08-25T18:47:05.908Z,30.03
2022-08-25T18:49:37.762Z,30.04
2022-08-25T18:52:07.523Z,30.06
2022-08-25T18:54:36.443Z,30.71
2022-08-25T18:57:08.869Z,30.79
2022-08-25T18:59:39.304Z,30.86
2022-08-25T19:02:12.814Z,31.02
2022-08-25T19:04:41.521Z,31.31
2022-08-25T19:07:12.573Z,31.40
2022-08-25T19:09:41.358Z,31.44
2022-08-25T19:12:11.578Z,31.70
2022-08-25T19:14:42.925Z,31.95
2022-08-25T19:17:12.791Z,32.37
2022-08-25T19:19:41.141Z,32.38
2022-08-25T19:22:38.131Z,32.72
2022-08-25T19:24:59.753Z,32.86
2022-08-25T19:27:28.229Z,33.20
2022-08-25T19:29:57.602Z,33.37
2022-08-25T19:32:27.923Z,33.18
2022-08-25T19:34:56.378Z,33.83
2022-08-25T19:37:29.291Z,33.72
2022-08-25T19:39:58.712Z,33.96
2022-08-25T19:42:35.058Z,34.03
2022-08-25T19:45:09.694Z,33.99
2022-08-25T19:47:37.956Z,34.14
2022-08-25T19:50:08.162Z,34.66
2022-08-25T19:52:40.016Z,34.90
2022-08-25T19:55:10.951Z,35.19
2022-08-25T19:57:42.664Z,35.33
2022-08-25T20:00:29.424Z,35.31
2022-08-25T20:02:58.548Z,35.78
2022-08-25T20:05:28.638Z,35.42
2022-08-25T20:07:58.310Z,35.82
2022-08-25T20:10:33.285Z,35.93
2022-08-25T20:13:10.897Z,35.82
2022-08-25T20:15:39.508Z,36.01
2022-08-25T20:18:07.784Z,36.26
2022-08-25T20:20:36.851Z,36.51
2022-08-25T20:23:25.230Z,36.25
2022-08-25T20:25:57.132Z,36.70
2022-08-25T20:28:26.252Z,36.36
2022-08-25T20:30:56.434Z,36.50
2022-08-25T20:33:25.999Z,36.55
2022-08-25T20:35:55.368Z,37.01
2022-08-25T20:38:24.087Z,36.81
2022-08-25T20:40:52.194Z,37.34
2022-08-25T20:43:20.747Z,37.46
2022-08-25T20:45:49.181Z,37.39
2022-08-25T20:48:17.956Z,37.90
2022-08-25T20:50:45.994Z,37.96
2022-08-25T20:53:26.738Z,38.09
2022-08-25T20:55:55.758Z,37.97
2022-08-25T20:58:23.989Z,38.20
2022-08-25T21:00:54.744Z,38.24
2022-08-25T21:03:23.800Z,38.44
2022-08-25T21:05:53.951Z,38.94
2022-08-25T21:08:23.744Z,38.80
2022-08-25T21:10:53.865Z,38.63
2022-08-25T21:13:22.760Z,39.12
2022-08-25T21:15:52.146Z,39.13
2022-08-25T21:18:20.336Z,39.32
2022-08-25T21:20:48.827Z,39.34
2022-08-25T21:23:17.733Z,39.47
2022-08-25T21:25:46.305Z,39.16
2022-08-25T21:28:16.407Z,39.49
2022-08-25T21:30:47.418Z,39.73
2022-08-25T21:33:16.266Z,39.62
2022-08-25T21:35:46.944Z,39.78
2022-08-25T21:38:15.506Z,39.80
2022-08-25T21:40:45.047Z,39.92
2022-08-25T21:43:13.172Z,40.04
2022-08-25T21:45:46.810Z,39.87
2022-08-25T21:48:15.551Z,39.82
2022-08-25T21:50:43.694Z,40.29
2022-08-25T21:53:11.933Z,40.37
2022-08-25T21:55:42.151Z,40.51
2022-08-25T21:58:12.285Z,40.94
2022-08-25T22:00:45.293Z,40.92
2022-08-25T22:03:13.382Z,41.01
2022-08-25T22:05:43.231Z,41.14
2022-08-25T22:08:14.058Z,40.73
2022-08-25T22:10:45.395Z,41.00
2022-08-25T22:13:13.954Z,41.17
2022-08-25T22:15:41.845Z,41.24
2022-08-25T22:18:10.217Z,41.42
2022-08-25T22:20:39.177Z,41.51
2022-08-25T22:23:09.327Z,41.64
2022-08-25T22:25:37.458Z,41.65
2022-08-25T22:28:06.901Z,41.66
2022-08-25T22:30:37.198Z,41.68
2022-08-25T22:33:07.397Z,41.57
2022-08-25T22:35:37.974Z,41.87
2022-08-25T22:38:12.480Z,41.86
2022-08-25T22:40:41.729Z,41.92
2022-08-25T22:43:10.931Z,41.63
2022-08-25T22:45:40.842Z,41.42
2022-08-25T22:48:10.107Z,41.36
2022-08-25T22:50:39.575Z,41.19
2022-08-25T22:53:09.239Z,41.21
2022-08-25T22:55:43.624Z,41.16
2022-08-25T22:58:12.432Z,41.06
2022-08-25T23:00:42.794Z,41.23
2022-08-25T23:03:12.074Z,41.39
2022-08-25T23:05:40.964Z,41.61
2022-08-25T23:08:08.866Z,41.56
2022-08-25T23:10:38.422Z,41.82
2022-08-25T23:13:07.487Z,41.90
2022-08-25T23:15:36.374Z,41.80
2022-08-25T23:18:06.253Z,42.00
2022-08-25T23:20:54.069Z,42.02
2022-08-25T23:23:22.299Z,42.37
2022-08-25T23:25:51.434Z,42.41
2022-08-25T23:28:20.230Z,42.61
2022-08-25T23:30:59.245Z,42.63
2022-08-25T23:33:27.573Z,42.81
2022-08-25T23:36:01.973Z,42.52
2022-08-25T23:38:29.969Z,42.94
2022-08-25T23:40:59.141Z,42.73
2022-08-25T23:43:27.554Z,42.86
2022-08-25T23:45:57.524Z,42.96
2022-08-25T23:48:26.061Z,42.81
2022-08-25T23:50:54.380Z,43.17
2022-08-25T23:53:22.645Z,43.30
2022-08-25T23:55:54.059Z,43.20
2022-08-25T23:58:22.459Z,43.44
